Atlanta, GA (31141)

6:15 AM EDT on July 31, 2016 (GMT -0400)
Mercedes Benz Stadium | | Change Station

Elev 1047 ft 33.75 °N, 84.40 °W | Updated 10 minutes ago

Clear
Clear
73.2 °F
Feels Like 71 °F
N
2.7
Wind Variable Wind from West

Today
High -- | Low -- °F
--% Chance of Precip.
Yesterday
High -- | Low -- °F
Precip. -- in
Pressure 30.02 in
Visibility 7.0 miles
Clouds Clear
Heat Index 71 °F
Dew Point 70 °F
Humidity 91%
Rainfall 0.00 in
Snow Depth Not available.
6:49 AM 8:38 PM
Waning Crescent, 7% visible
METAR KFTY 310953Z 00000KT 7SM CLR 21/20 A3004 RMK AO2 SLP164 T02110200
Pressure 30.02 in
Visibility 7.0 miles
Clouds Clear
Heat Index 71 °F
Dew Point 70 °F
Humidity 91%
Rainfall 0.00 in
Snow Depth Not available.
6:49 AM 8:38 PM
Waning Crescent, 7% visible
METAR KFTY 310953Z 00000KT 7SM CLR 21/20 A3004 RMK AO2 SLP164 T02110200

10-Day Weather Forecast

Almanac

Astronomy

Jul. 31, 2016 Rise Set
Actual Time
Civil Twilight
Nautical Twilight
Astronomical Twilight
Moon
Length of Visible Light
Length of Day
Tomorrow will be .
, % of the Moon is Illuminated

Today's Extremes

State Highs State Lows

Community

WunderPhotos

Upload Photos

1,928,778 photos uploaded!

WunderBlog® & News

Nearby

Air Quality

  Air Quality AQ Index Pollutant
Not available.

Snow Depth

Station Depth Elevation

Earthquake Activity

City Distance Mag. Time & Date
Minimum magnitude displayed is 2.5.

Coastal Water Temperatures

Place Temperature

Stations

Nearby Weather Stations

Station Location Temp. Windchill Dew Point Humidity Wind Precip. Elev Updated Type
                   

Watches & Warnings

There are currently no watches in effect.